sensor_id;sensor_type;location;lat;lon;timestamp;temperature;humidity
39315;DHT22;28703;44.412;11.918;2023-05-23T04:43:49;18.50;99.90
39315;DHT22;28703;44.412;11.918;2023-05-23T04:46:28;18.50;99.90
39315;DHT22;28703;44.412;11.918;2023-05-23T04:49:08;18.60;99.90
39315;DHT22;28703;44.412;11.918;2023-05-23T04:51:39;18.60;99.90
39315;DHT22;28703;44.412;11.918;2023-05-23T04:54:19;18.60;99.90
39315;DHT22;28703;44.412;11.918;2023-05-23T04:56:48;18.60;99.90
39315;DHT22;28703;44.412;11.918;2023-05-23T04:59:18;18.70;99.90
39315;DHT22;28703;44.412;11.918;2023-05-23T05:01:44;18.70;99.90
39315;DHT22;28703;44.412;11.918;2023-05-23T05:04:11;18.80;99.90
39315;DHT22;28703;44.412;11.918;2023-05-23T05:06:39;18.80;99.90
39315;DHT22;28703;44.412;11.918;2023-05-23T05:09:07;18.90;99.90
39315;DHT22;28703;44.412;11.918;2023-05-23T05:11:52;18.90;99.90
39315;DHT22;28703;44.412;11.918;2023-05-23T05:14:19;19.00;99.90
39315;DHT22;28703;44.412;11.918;2023-05-23T05:16:45;19.00;99.90
39315;DHT22;28703;44.412;11.918;2023-05-23T05:19:15;19.10;99.90
39315;DHT22;28703;44.412;11.918;2023-05-23T05:21:47;19.10;99.90
39315;DHT22;28703;44.412;11.918;2023-05-23T06:26:14;20.20;99.90
39315;DHT22;28703;44.412;11.918;2023-05-23T06:28:40;20.30;99.90
39315;DHT22;28703;44.412;11.918;2023-05-23T06:31:09;20.30;99.90
39315;DHT22;28703;44.412;11.918;2023-05-23T06:33:35;20.40;99.90
39315;DHT22;28703;44.412;11.918;2023-05-23T06:36:06;20.50;99.90
39315;DHT22;28703;44.412;11.918;2023-05-23T06:38:34;20.50;99.90
39315;DHT22;28703;44.412;11.918;2023-05-23T06:41:01;20.60;99.90
39315;DHT22;28703;44.412;11.918;2023-05-23T06:43:32;20.70;99.90
39315;DHT22;28703;44.412;11.918;2023-05-23T06:46:24;20.70;99.90
39315;DHT22;28703;44.412;11.918;2023-05-23T06:48:50;20.80;99.90
39315;DHT22;28703;44.412;11.918;2023-05-23T06:51:16;20.70;99.90
39315;DHT22;28703;44.412;11.918;2023-05-23T06:53:44;20.80;99.90
39315;DHT22;28703;44.412;11.918;2023-05-23T06:56:11;20.90;99.90
39315;DHT22;28703;44.412;11.918;2023-05-23T06:58:50;21.00;99.90
39315;DHT22;28703;44.412;11.918;2023-05-23T07:01:17;21.00;99.90
39315;DHT22;28703;44.412;11.918;2023-05-23T07:03:46;21.10;99.90
39315;DHT22;28703;44.412;11.918;2023-05-23T07:06:18;21.20;99.90
39315;DHT22;28703;44.412;11.918;2023-05-23T07:08:46;21.30;99.90
39315;DHT22;28703;44.412;11.918;2023-05-23T07:11:12;21.30;99.90
39315;DHT22;28703;44.412;11.918;2023-05-23T07:13:41;21.40;99.90
39315;DHT22;28703;44.412;11.918;2023-05-23T07:16:14;21.40;99.90
39315;DHT22;28703;44.412;11.918;2023-05-23T07:18:51;21.50;99.90
39315;DHT22;28703;44.412;11.918;2023-05-23T07:21:17;21.50;99.90
39315;DHT22;28703;44.412;11.918;2023-05-23T07:26:15;21.60;99.90
39315;DHT22;28703;44.412;11.918;2023-05-23T07:28:48;21.70;99.90
39315;DHT22;28703;44.412;11.918;2023-05-23T07:31:15;21.80;99.90
39315;DHT22;28703;44.412;11.918;2023-05-23T07:33:45;21.90;99.90
39315;DHT22;28703;44.412;11.918;2023-05-23T07:36:21;22.00;99.90
39315;DHT22;28703;44.412;11.918;2023-05-23T07:38:49;22.00;99.90
39315;DHT22;28703;44.412;11.918;2023-05-23T07:41:15;22.10;99.90
39315;DHT22;28703;44.412;11.918;2023-05-23T07:43:42;22.10;99.90
39315;DHT22;28703;44.412;11.918;2023-05-23T07:46:08;22.10;99.90
39315;DHT22;28703;44.412;11.918;2023-05-23T07:48:34;22.20;99.90
39315;DHT22;28703;44.412;11.918;2023-05-23T07:51:00;22.30;99.90
39315;DHT22;28703;44.412;11.918;2023-05-23T07:53:27;22.30;99.90
39315;DHT22;28703;44.412;11.918;2023-05-23T07:55:57;22.30;99.90
39315;DHT22;28703;44.412;11.918;2023-05-23T07:58:26;22.40;99.90
39315;DHT22;28703;44.412;11.918;2023-05-23T08:00:56;22.40;99.90
39315;DHT22;28703;44.412;11.918;2023-05-23T08:03:41;22.40;99.90
39315;DHT22;28703;44.412;11.918;2023-05-23T08:06:17;22.50;99.90
39315;DHT22;28703;44.412;11.918;2023-05-23T08:08:44;22.50;99.90
39315;DHT22;28703;44.412;11.918;2023-05-23T08:11:10;22.60;99.90
39315;DHT22;28703;44.412;11.918;2023-05-23T08:13:46;22.70;99.90
39315;DHT22;28703;44.412;11.918;2023-05-23T08:16:35;22.70;99.90
39315;DHT22;28703;44.412;11.918;2023-05-23T08:19:04;22.80;99.90
39315;DHT22;28703;44.412;11.918;2023-05-23T08:21:30;22.70;99.90
39315;DHT22;28703;44.412;11.918;2023-05-23T08:23:57;22.80;99.90
39315;DHT22;28703;44.412;11.918;2023-05-23T08:26:23;22.80;99.90
39315;DHT22;28703;44.412;11.918;2023-05-23T08:28:55;22.90;99.90
39315;DHT22;28703;44.412;11.918;2023-05-23T08:31:21;22.90;99.90
39315;DHT22;28703;44.412;11.918;2023-05-23T08:33:48;23.00;99.90
39315;DHT22;28703;44.412;11.918;2023-05-23T08:36:19;23.00;99.90
39315;DHT22;28703;44.412;11.918;2023-05-23T08:38:46;23.00;99.90
39315;DHT22;28703;44.412;11.918;2023-05-23T08:41:28;23.10;99.90
39315;DHT22;28703;44.412;11.918;2023-05-23T08:44:00;23.10;99.90
39315;DHT22;28703;44.412;11.918;2023-05-23T08:46:33;23.20;99.90
39315;DHT22;28703;44.412;11.918;2023-05-23T08:49:01;23.20;99.90
39315;DHT22;28703;44.412;11.918;2023-05-23T08:51:29;23.30;99.90
39315;DHT22;28703;44.412;11.918;2023-05-23T08:54:01;23.30;99.90
39315;DHT22;28703;44.412;11.918;2023-05-23T08:56:29;23.40;99.90
39315;DHT22;28703;44.412;11.918;2023-05-23T08:58:57;23.40;99.90
39315;DHT22;28703;44.412;11.918;2023-05-23T09:01:25;23.50;99.90
39315;DHT22;28703;44.412;11.918;2023-05-23T09:03:55;23.50;99.90
39315;DHT22;28703;44.412;11.918;2023-05-23T09:06:34;23.60;99.90
39315;DHT22;28703;44.412;11.918;2023-05-23T09:09:01;23.70;99.90
39315;DHT22;28703;44.412;11.918;2023-05-23T09:11:30;23.70;99.90
39315;DHT22;28703;44.412;11.918;2023-05-23T09:13:59;23.80;99.90
39315;DHT22;28703;44.412;11.918;2023-05-23T09:16:34;23.80;99.90
39315;DHT22;28703;44.412;11.918;2023-05-23T09:19:10;23.90;99.90
39315;DHT22;28703;44.412;11.918;2023-05-23T09:21:45;24.00;99.90
39315;DHT22;28703;44.412;11.918;2023-05-23T09:24:18;24.00;99.90
39315;DHT22;28703;44.412;11.918;2023-05-23T09:26:48;24.00;99.90
39315;DHT22;28703;44.412;11.918;2023-05-23T09:29:20;24.00;99.90
39315;DHT22;28703;44.412;11.918;2023-05-23T09:31:47;24.10;99.90
39315;DHT22;28703;44.412;11.918;2023-05-23T09:34:18;24.10;99.90
39315;DHT22;28703;44.412;11.918;2023-05-23T09:36:45;24.20;99.90
39315;DHT22;28703;44.412;11.918;2023-05-23T09:39:12;24.30;99.90
39315;DHT22;28703;44.412;11.918;2023-05-23T09:41:42;24.30;99.90
39315;DHT22;28703;44.412;11.918;2023-05-23T09:44:13;24.40;99.90
39315;DHT22;28703;44.412;11.918;2023-05-23T09:46:50;24.40;99.90
39315;DHT22;28703;44.412;11.918;2023-05-23T09:49:25;24.50;99.90
39315;DHT22;28703;44.412;11.918;2023-05-23T09:51:59;24.50;99.90
39315;DHT22;28703;44.412;11.918;2023-05-23T09:54:26;24.60;99.90
39315;DHT22;28703;44.412;11.918;2023-05-23T09:56:53;24.60;99.90
39315;DHT22;28703;44.412;11.918;2023-05-23T09:59:22;24.60;98.60
39315;DHT22;28703;44.412;11.918;2023-05-23T10:01:56;24.60;97.10
39315;DHT22;28703;44.412;11.918;2023-05-23T10:04:24;24.70;97.50
39315;DHT22;28703;44.412;11.918;2023-05-23T10:07:06;24.70;97.60
39315;DHT22;28703;44.412;11.918;2023-05-23T10:09:37;24.80;97.10
39315;DHT22;28703;44.412;11.918;2023-05-23T10:14:53;24.90;97.60
39315;DHT22;28703;44.412;11.918;2023-05-23T10:17:35;25.00;98.20
39315;DHT22;28703;44.412;11.918;2023-05-23T10:20:09;25.00;98.40
39315;DHT22;28703;44.412;11.918;2023-05-23T10:22:37;25.10;98.50
39315;DHT22;28703;44.412;11.918;2023-05-23T10:25:04;25.10;98.50
39315;DHT22;28703;44.412;11.918;2023-05-23T10:27:32;25.20;98.90
39315;DHT22;28703;44.412;11.918;2023-05-23T10:30:02;25.20;98.70
39315;DHT22;28703;44.412;11.918;2023-05-23T10:32:30;25.40;98.70
39315;DHT22;28703;44.412;11.918;2023-05-23T10:35:13;25.30;98.60
39315;DHT22;28703;44.412;11.918;2023-05-23T10:38:03;25.40;98.30
39315;DHT22;28703;44.412;11.918;2023-05-23T10:43:39;25.50;97.90
39315;DHT22;28703;44.412;11.918;2023-05-23T10:46:11;25.50;97.50
39315;DHT22;28703;44.412;11.918;2023-05-23T10:48:41;25.60;97.70
39315;DHT22;28703;44.412;11.918;2023-05-23T10:51:10;25.60;96.90
39315;DHT22;28703;44.412;11.918;2023-05-23T10:53:44;25.60;96.70
39315;DHT22;28703;44.412;11.918;2023-05-23T10:56:19;25.70;96.60
39315;DHT22;28703;44.412;11.918;2023-05-23T10:58:53;25.70;96.60
39315;DHT22;28703;44.412;11.918;2023-05-23T11:01:19;25.80;96.60
39315;DHT22;28703;44.412;11.918;2023-05-23T11:09:02;26.00;97.00
39315;DHT22;28703;44.412;11.918;2023-05-23T11:11:55;26.10;96.90
39315;DHT22;28703;44.412;11.918;2023-05-23T11:17:00;26.30;96.80
39315;DHT22;28703;44.412;11.918;2023-05-23T11:19:27;26.30;96.70
39315;DHT22;28703;44.412;11.918;2023-05-23T11:22:07;26.30;96.10
39315;DHT22;28703;44.412;11.918;2023-05-23T11:24:51;26.30;95.90
39315;DHT22;28703;44.412;11.918;2023-05-23T11:30:01;26.40;96.00
39315;DHT22;28703;44.412;11.918;2023-05-23T11:32:30;26.50;95.90
39315;DHT22;28703;44.412;11.918;2023-05-23T11:35:04;26.50;95.90
39315;DHT22;28703;44.412;11.918;2023-05-23T11:37:33;26.60;96.30
39315;DHT22;28703;44.412;11.918;2023-05-23T11:40:31;26.70;96.50
39315;DHT22;28703;44.412;11.918;2023-05-23T11:43:12;26.80;96.50
39315;DHT22;28703;44.412;11.918;2023-05-23T11:45:39;26.90;96.90
39315;DHT22;28703;44.412;11.918;2023-05-23T11:48:12;26.90;97.10
39315;DHT22;28703;44.412;11.918;2023-05-23T11:50:47;27.10;97.20
39315;DHT22;28703;44.412;11.918;2023-05-23T11:53:14;27.20;97.00
39315;DHT22;28703;44.412;11.918;2023-05-23T11:55:52;27.30;97.00
39315;DHT22;28703;44.412;11.918;2023-05-23T11:58:28;27.30;96.40
39315;DHT22;28703;44.412;11.918;2023-05-23T12:01:10;27.40;96.70
39315;DHT22;28703;44.412;11.918;2023-05-23T12:03:48;27.50;96.60
39315;DHT22;28703;44.412;11.918;2023-05-23T12:06:14;27.70;96.40
39315;DHT22;28703;44.412;11.918;2023-05-23T12:08:41;27.70;96.60
39315;DHT22;28703;44.412;11.918;2023-05-23T12:11:07;27.80;96.70
39315;DHT22;28703;44.412;11.918;2023-05-23T12:13:33;27.90;96.60
39315;DHT22;28703;44.412;11.918;2023-05-23T12:16:02;28.00;96.40
39315;DHT22;28703;44.412;11.918;2023-05-23T12:18:31;28.20;96.40
39315;DHT22;28703;44.412;11.918;2023-05-23T12:21:04;28.30;96.10
39315;DHT22;28703;44.412;11.918;2023-05-23T12:23:33;28.40;96.00
39315;DHT22;28703;44.412;11.918;2023-05-23T12:26:04;28.50;96.00
39315;DHT22;28703;44.412;11.918;2023-05-23T12:28:39;28.60;95.80
39315;DHT22;28703;44.412;11.918;2023-05-23T12:31:16;28.70;95.50
39315;DHT22;28703;44.412;11.918;2023-05-23T12:33:44;28.80;95.60
39315;DHT22;28703;44.412;11.918;2023-05-23T12:36:15;28.90;96.00
39315;DHT22;28703;44.412;11.918;2023-05-23T12:38:46;29.00;95.90
39315;DHT22;28703;44.412;11.918;2023-05-23T12:41:19;29.10;95.40
39315;DHT22;28703;44.412;11.918;2023-05-23T12:43:50;29.30;94.70
39315;DHT22;28703;44.412;11.918;2023-05-23T12:46:20;29.30;94.50
39315;DHT22;28703;44.412;11.918;2023-05-23T12:48:46;29.40;94.30
39315;DHT22;28703;44.412;11.918;2023-05-23T12:51:14;29.30;94.00
39315;DHT22;28703;44.412;11.918;2023-05-23T12:53:43;29.30;94.10
39315;DHT22;28703;44.412;11.918;2023-05-23T12:56:12;29.20;94.50
39315;DHT22;28703;44.412;11.918;2023-05-23T12:58:41;29.20;94.90
39315;DHT22;28703;44.412;11.918;2023-05-23T13:01:08;29.30;95.30
39315;DHT22;28703;44.412;11.918;2023-05-23T13:03:34;29.40;95.70
39315;DHT22;28703;44.412;11.918;2023-05-23T13:06:08;29.50;95.70
39315;DHT22;28703;44.412;11.918;2023-05-23T13:08:37;29.70;95.60
39315;DHT22;28703;44.412;11.918;2023-05-23T13:11:07;29.80;95.40
39315;DHT22;28703;44.412;11.918;2023-05-23T13:13:37;30.00;94.80
39315;DHT22;28703;44.412;11.918;2023-05-23T13:16:03;30.00;93.60
39315;DHT22;28703;44.412;11.918;2023-05-23T13:18:33;30.10;93.40
39315;DHT22;28703;44.412;11.918;2023-05-23T13:21:03;30.30;93.50
39315;DHT22;28703;44.412;11.918;2023-05-23T13:23:32;30.40;93.70
39315;DHT22;28703;44.412;11.918;2023-05-23T13:25:59;30.50;93.70
39315;DHT22;28703;44.412;11.918;2023-05-23T13:28:25;30.70;93.80
39315;DHT22;28703;44.412;11.918;2023-05-23T13:30:54;30.80;93.80
39315;DHT22;28703;44.412;11.918;2023-05-23T13:33:21;30.90;93.70
39315;DHT22;28703;44.412;11.918;2023-05-23T13:35:51;31.00;93.10
39315;DHT22;28703;44.412;11.918;2023-05-23T13:38:18;31.10;92.60
39315;DHT22;28703;44.412;11.918;2023-05-23T13:40:45;31.20;92.50
39315;DHT22;28703;44.412;11.918;2023-05-23T13:43:13;31.30;92.50
39315;DHT22;28703;44.412;11.918;2023-05-23T13:45:40;31.40;92.30
39315;DHT22;28703;44.412;11.918;2023-05-23T13:48:06;31.50;92.40
39315;DHT22;28703;44.412;11.918;2023-05-23T13:50:41;31.60;92.60
39315;DHT22;28703;44.412;11.918;2023-05-23T13:53:10;31.70;92.60
39315;DHT22;28703;44.412;11.918;2023-05-23T13:55:42;31.80;92.30
39315;DHT22;28703;44.412;11.918;2023-05-23T13:58:10;31.90;92.10
39315;DHT22;28703;44.412;11.918;2023-05-23T14:00:40;32.00;92.30
39315;DHT22;28703;44.412;11.918;2023-05-23T14:03:06;32.10;92.10
39315;DHT22;28703;44.412;11.918;2023-05-23T14:05:33;32.20;92.50
39315;DHT22;28703;44.412;11.918;2023-05-23T14:08:01;32.30;91.90
39315;DHT22;28703;44.412;11.918;2023-05-23T14:10:27;32.40;91.80
39315;DHT22;28703;44.412;11.918;2023-05-23T14:12:54;32.30;90.50
39315;DHT22;28703;44.412;11.918;2023-05-23T14:15:23;32.50;90.80
39315;DHT22;28703;44.412;11.918;2023-05-23T14:17:51;32.50;91.00
39315;DHT22;28703;44.412;11.918;2023-05-23T14:20:25;32.50;91.10
39315;DHT22;28703;44.412;11.918;2023-05-23T14:22:52;32.70;91.10
39315;DHT22;28703;44.412;11.918;2023-05-23T14:25:18;32.80;91.00
39315;DHT22;28703;44.412;11.918;2023-05-23T14:27:44;32.90;90.80
39315;DHT22;28703;44.412;11.918;2023-05-23T14:30:13;32.90;90.70
39315;DHT22;28703;44.412;11.918;2023-05-23T14:32:42;33.10;90.40
39315;DHT22;28703;44.412;11.918;2023-05-23T14:35:11;33.10;90.40
39315;DHT22;28703;44.412;11.918;2023-05-23T14:37:40;33.20;90.40
39315;DHT22;28703;44.412;11.918;2023-05-23T14:40:06;33.30;90.30
39315;DHT22;28703;44.412;11.918;2023-05-23T14:42:35;33.30;90.20
39315;DHT22;28703;44.412;11.918;2023-05-23T14:45:01;33.30;90.20
39315;DHT22;28703;44.412;11.918;2023-05-23T14:47:27;33.40;90.20
39315;DHT22;28703;44.412;11.918;2023-05-23T14:49:57;33.50;90.00
39315;DHT22;28703;44.412;11.918;2023-05-23T14:52:26;33.60;89.60
39315;DHT22;28703;44.412;11.918;2023-05-23T14:54:52;33.70;89.70
39315;DHT22;28703;44.412;11.918;2023-05-23T14:57:18;33.70;89.30
39315;DHT22;28703;44.412;11.918;2023-05-23T14:59:47;33.80;88.70
39315;DHT22;28703;44.412;11.918;2023-05-23T15:02:18;33.90;88.80
39315;DHT22;28703;44.412;11.918;2023-05-23T15:04:45;34.00;89.00
39315;DHT22;28703;44.412;11.918;2023-05-23T15:07:11;34.10;88.80
39315;DHT22;28703;44.412;11.918;2023-05-23T15:09:45;34.20;87.50
39315;DHT22;28703;44.412;11.918;2023-05-23T15:12:14;34.30;87.20
39315;DHT22;28703;44.412;11.918;2023-05-23T15:14:42;34.30;86.40
39315;DHT22;28703;44.412;11.918;2023-05-23T15:17:08;34.40;86.90
39315;DHT22;28703;44.412;11.918;2023-05-23T15:19:40;34.40;86.80
39315;DHT22;28703;44.412;11.918;2023-05-23T15:22:09;34.50;85.90
39315;DHT22;28703;44.412;11.918;2023-05-23T15:24:38;34.60;86.10
39315;DHT22;28703;44.412;11.918;2023-05-23T15:27:04;34.70;86.50
39315;DHT22;28703;44.412;11.918;2023-05-23T15:29:30;34.80;86.00
39315;DHT22;28703;44.412;11.918;2023-05-23T15:31:58;34.80;85.80
39315;DHT22;28703;44.412;11.918;2023-05-23T15:34:27;34.90;85.70
39315;DHT22;28703;44.412;11.918;2023-05-23T15:36:54;35.00;85.40
39315;DHT22;28703;44.412;11.918;2023-05-23T15:39:21;35.20;85.20
39315;DHT22;28703;44.412;11.918;2023-05-23T15:41:47;35.20;83.80
39315;DHT22;28703;44.412;11.918;2023-05-23T15:44:15;35.30;83.60
39315;DHT22;28703;44.412;11.918;2023-05-23T15:46:48;35.40;83.60
39315;DHT22;28703;44.412;11.918;2023-05-23T15:49:15;35.60;83.70
39315;DHT22;28703;44.412;11.918;2023-05-23T15:51:42;35.70;83.40
39315;DHT22;28703;44.412;11.918;2023-05-23T15:54:10;35.80;82.70
39315;DHT22;28703;44.412;11.918;2023-05-23T15:56:37;35.90;82.30
39315;DHT22;28703;44.412;11.918;2023-05-23T15:59:05;36.00;81.70
39315;DHT22;28703;44.412;11.918;2023-05-23T16:01:33;36.20;81.70
39315;DHT22;28703;44.412;11.918;2023-05-23T16:04:02;36.30;81.20
39315;DHT22;28703;44.412;11.918;2023-05-23T16:06:28;36.50;81.20
39315;DHT22;28703;44.412;11.918;2023-05-23T16:08:59;36.70;81.50
39315;DHT22;28703;44.412;11.918;2023-05-23T16:11:25;36.90;81.60
39315;DHT22;28703;44.412;11.918;2023-05-23T16:13:57;36.90;81.30
39315;DHT22;28703;44.412;11.918;2023-05-23T16:16:23;37.20;81.30
39315;DHT22;28703;44.412;11.918;2023-05-23T16:18:52;37.40;80.90
39315;DHT22;28703;44.412;11.918;2023-05-23T16:21:18;37.60;80.10
39315;DHT22;28703;44.412;11.918;2023-05-23T16:23:46;37.80;78.90
39315;DHT22;28703;44.412;11.918;2023-05-23T16:26:13;38.00;78.90
39315;DHT22;28703;44.412;11.918;2023-05-23T16:28:42;38.30;79.50
39315;DHT22;28703;44.412;11.918;2023-05-23T16:31:16;38.50;79.60
39315;DHT22;28703;44.412;11.918;2023-05-23T16:33:43;38.70;79.70
39315;DHT22;28703;44.412;11.918;2023-05-23T16:36:09;38.90;79.10
39315;DHT22;28703;44.412;11.918;2023-05-23T16:38:42;39.30;78.10
39315;DHT22;28703;44.412;11.918;2023-05-23T16:41:10;39.70;77.10
39315;DHT22;28703;44.412;11.918;2023-05-23T16:43:36;39.90;77.00
39315;DHT22;28703;44.412;11.918;2023-05-23T16:46:03;40.20;77.10
39315;DHT22;28703;44.412;11.918;2023-05-23T16:48:30;40.60;76.60
39315;DHT22;28703;44.412;11.918;2023-05-23T16:50:57;40.90;76.00
39315;DHT22;28703;44.412;11.918;2023-05-23T16:53:27;41.10;76.00
39315;DHT22;28703;44.412;11.918;2023-05-23T16:55:54;41.40;75.60
39315;DHT22;28703;44.412;11.918;2023-05-23T16:58:22;41.60;75.40
39315;DHT22;28703;44.412;11.918;2023-05-23T17:00:48;41.90;75.10
39315;DHT22;28703;44.412;11.918;2023-05-23T17:03:14;42.00;74.80
39315;DHT22;28703;44.412;11.918;2023-05-23T17:05:40;42.10;74.20
39315;DHT22;28703;44.412;11.918;2023-05-23T17:08:09;42.30;73.80
39315;DHT22;28703;44.412;11.918;2023-05-23T17:10:41;42.50;74.20
39315;DHT22;28703;44.412;11.918;2023-05-23T17:13:07;42.50;73.00
39315;DHT22;28703;44.412;11.918;2023-05-23T17:15:35;42.30;71.90
39315;DHT22;28703;44.412;11.918;2023-05-23T17:18:04;42.20;71.20
39315;DHT22;28703;44.412;11.918;2023-05-23T17:20:33;42.20;70.50
39315;DHT22;28703;44.412;11.918;2023-05-23T17:22:59;42.10;70.10
39315;DHT22;28703;44.412;11.918;2023-05-23T17:25:26;42.00;70.20
39315;DHT22;28703;44.412;11.918;2023-05-23T17:27:56;41.90;70.10
39315;DHT22;28703;44.412;11.918;2023-05-23T17:30:22;41.80;70.30
39315;DHT22;28703;44.412;11.918;2023-05-23T17:32:48;41.70;70.30
39315;DHT22;28703;44.412;11.918;2023-05-23T17:35:16;41.60;70.40
39315;DHT22;28703;44.412;11.918;2023-05-23T17:37:42;41.40;70.50
39315;DHT22;28703;44.412;11.918;2023-05-23T17:40:12;41.40;70.90
39315;DHT22;28703;44.412;11.918;2023-05-23T17:42:42;41.20;71.10
39315;DHT22;28703;44.412;11.918;2023-05-23T17:45:10;41.10;71.20
39315;DHT22;28703;44.412;11.918;2023-05-23T17:47:37;40.80;70.80
39315;DHT22;28703;44.412;11.918;2023-05-23T17:50:06;40.30;70.30
39315;DHT22;28703;44.412;11.918;2023-05-23T17:52:38;39.70;69.90
39315;DHT22;28703;44.412;11.918;2023-05-23T17:55:11;38.90;70.30
39315;DHT22;28703;44.412;11.918;2023-05-23T17:57:37;38.10;70.90
39315;DHT22;28703;44.412;11.918;2023-05-23T18:00:04;37.40;71.80
39315;DHT22;28703;44.412;11.918;2023-05-23T18:02:38;36.70;72.60
39315;DHT22;28703;44.412;11.918;2023-05-23T18:05:07;36.00;73.80
39315;DHT22;28703;44.412;11.918;2023-05-23T18:07:37;35.40;74.70
39315;DHT22;28703;44.412;11.918;2023-05-23T18:10:07;34.80;75.50
39315;DHT22;28703;44.412;11.918;2023-05-23T18:12:34;34.30;76.10
39315;DHT22;28703;44.412;11.918;2023-05-23T18:15:02;33.80;76.70
39315;DHT22;28703;44.412;11.918;2023-05-23T18:17:29;33.40;77.50
39315;DHT22;28703;44.412;11.918;2023-05-23T18:19:55;32.90;78.00
39315;DHT22;28703;44.412;11.918;2023-05-23T18:22:21;32.60;78.80
39315;DHT22;28703;44.412;11.918;2023-05-23T18:24:50;32.20;79.70
39315;DHT22;28703;44.412;11.918;2023-05-23T18:27:17;31.90;80.50
39315;DHT22;28703;44.412;11.918;2023-05-23T18:29:43;31.60;81.20
39315;DHT22;28703;44.412;11.918;2023-05-23T18:32:09;31.20;81.70
39315;DHT22;28703;44.412;11.918;2023-05-23T18:34:36;31.00;82.40
39315;DHT22;28703;44.412;11.918;2023-05-23T18:37:11;30.70;82.90
39315;DHT22;28703;44.412;11.918;2023-05-23T18:39:37;30.40;83.50
39315;DHT22;28703;44.412;11.918;2023-05-23T18:42:06;30.20;84.10
39315;DHT22;28703;44.412;11.918;2023-05-23T18:44:36;30.00;84.60
39315;DHT22;28703;44.412;11.918;2023-05-23T18:47:07;29.70;85.00
39315;DHT22;28703;44.412;11.918;2023-05-23T18:49:33;29.50;85.60
39315;DHT22;28703;44.412;11.918;2023-05-23T18:52:09;29.30;85.90
39315;DHT22;28703;44.412;11.918;2023-05-23T18:54:36;29.20;86.30
39315;DHT22;28703;44.412;11.918;2023-05-23T18:57:02;29.00;86.50
39315;DHT22;28703;44.412;11.918;2023-05-23T18:59:28;28.80;86.60
39315;DHT22;28703;44.412;11.918;2023-05-23T19:01:55;28.70;86.70
39315;DHT22;28703;44.412;11.918;2023-05-23T19:04:23;28.50;86.90
39315;DHT22;28703;44.412;11.918;2023-05-23T19:06:52;28.40;87.10
39315;DHT22;28703;44.412;11.918;2023-05-23T19:09:19;28.20;87.50
39315;DHT22;28703;44.412;11.918;2023-05-23T19:11:45;28.10;88.00
39315;DHT22;28703;44.412;11.918;2023-05-23T19:14:11;28.00;88.60
39315;DHT22;28703;44.412;11.918;2023-05-23T19:16:38;27.80;88.80
39315;DHT22;28703;44.412;11.918;2023-05-23T19:19:05;27.70;89.20
39315;DHT22;28703;44.412;11.918;2023-05-23T19:21:34;27.60;89.60
39315;DHT22;28703;44.412;11.918;2023-05-23T19:24:00;27.50;89.80
39315;DHT22;28703;44.412;11.918;2023-05-23T19:26:26;27.30;89.90
39315;DHT22;28703;44.412;11.918;2023-05-23T19:28:53;27.20;89.90
39315;DHT22;28703;44.412;11.918;2023-05-23T19:31:19;27.10;90.00
39315;DHT22;28703;44.412;11.918;2023-05-23T19:33:47;27.00;90.00
39315;DHT22;28703;44.412;11.918;2023-05-23T19:36:13;26.90;90.00
39315;DHT22;28703;44.412;11.918;2023-05-23T19:38:39;26.80;90.10
39315;DHT22;28703;44.412;11.918;2023-05-23T19:41:06;26.80;90.20
39315;DHT22;28703;44.412;11.918;2023-05-23T19:43:32;26.70;90.10
39315;DHT22;28703;44.412;11.918;2023-05-23T19:46:01;26.60;90.20
39315;DHT22;28703;44.412;11.918;2023-05-23T19:48:28;26.50;90.20
39315;DHT22;28703;44.412;11.918;2023-05-23T19:50:55;26.40;90.20
39315;DHT22;28703;44.412;11.918;2023-05-23T19:53:22;26.40;90.20
39315;DHT22;28703;44.412;11.918;2023-05-23T19:55:48;26.30;90.20
39315;DHT22;28703;44.412;11.918;2023-05-23T19:58:15;26.20;90.20
39315;DHT22;28703;44.412;11.918;2023-05-23T20:00:43;26.20;90.20
39315;DHT22;28703;44.412;11.918;2023-05-23T20:03:09;26.10;90.30
39315;DHT22;28703;44.412;11.918;2023-05-23T20:05:35;26.10;90.30
39315;DHT22;28703;44.412;11.918;2023-05-23T20:08:01;26.00;90.20
39315;DHT22;28703;44.412;11.918;2023-05-23T20:10:27;25.90;90.10
39315;DHT22;28703;44.412;11.918;2023-05-23T20:12:54;25.80;90.10
39315;DHT22;28703;44.412;11.918;2023-05-23T20:15:20;25.80;90.20
39315;DHT22;28703;44.412;11.918;2023-05-23T20:17:46;25.70;90.30
39315;DHT22;28703;44.412;11.918;2023-05-23T20:20:12;25.70;90.30
39315;DHT22;28703;44.412;11.918;2023-05-23T20:22:39;25.60;90.30
39315;DHT22;28703;44.412;11.918;2023-05-23T20:25:05;25.50;90.30
39315;DHT22;28703;44.412;11.918;2023-05-23T20:27:32;25.50;90.40
39315;DHT22;28703;44.412;11.918;2023-05-23T20:29:58;25.40;90.50
39315;DHT22;28703;44.412;11.918;2023-05-23T20:32:25;25.40;90.60
39315;DHT22;28703;44.412;11.918;2023-05-23T20:34:52;25.30;90.80
39315;DHT22;28703;44.412;11.918;2023-05-23T20:37:20;25.30;90.90
39315;DHT22;28703;44.412;11.918;2023-05-23T20:39:46;25.20;91.00
39315;DHT22;28703;44.412;11.918;2023-05-23T20:42:19;25.10;91.10
39315;DHT22;28703;44.412;11.918;2023-05-23T20:44:50;25.10;91.20
39315;DHT22;28703;44.412;11.918;2023-05-23T20:47:18;25.00;91.50
39315;DHT22;28703;44.412;11.918;2023-05-23T20:49:45;24.90;91.40
39315;DHT22;28703;44.412;11.918;2023-05-23T20:52:12;24.90;91.60
39315;DHT22;28703;44.412;11.918;2023-05-23T20:54:41;24.80;91.70
39315;DHT22;28703;44.412;11.918;2023-05-23T20:57:07;24.80;91.80
39315;DHT22;28703;44.412;11.918;2023-05-23T20:59:33;24.70;92.00
39315;DHT22;28703;44.412;11.918;2023-05-23T21:02:00;24.70;92.10
39315;DHT22;28703;44.412;11.918;2023-05-23T21:04:26;24.60;92.10
39315;DHT22;28703;44.412;11.918;2023-05-23T21:06:55;24.60;92.30
39315;DHT22;28703;44.412;11.918;2023-05-23T21:09:22;24.50;92.50
39315;DHT22;28703;44.412;11.918;2023-05-23T21:11:48;24.50;92.60
39315;DHT22;28703;44.412;11.918;2023-05-23T21:14:14;24.40;92.60
39315;DHT22;28703;44.412;11.918;2023-05-23T21:16:40;24.40;92.70
39315;DHT22;28703;44.412;11.918;2023-05-23T21:19:06;24.30;92.80
39315;DHT22;28703;44.412;11.918;2023-05-23T21:21:33;24.30;92.90
39315;DHT22;28703;44.412;11.918;2023-05-23T21:23:59;24.20;93.10
39315;DHT22;28703;44.412;11.918;2023-05-23T21:26:26;24.20;93.20
39315;DHT22;28703;44.412;11.918;2023-05-23T21:28:52;24.10;93.30
39315;DHT22;28703;44.412;11.918;2023-05-23T21:31:18;24.10;93.40